Wales, WI

5:53 PM CDT on September 30, 2014 (GMT -0500)
KWIGENES3 | Change Station
CLOSE
Current Station
Personal Weather Station
Location: GENESEE DEPOT, WI
Elevation: 931 ft
Nearby Weather Stations

Elev 931 ft 42.97 °N, 88.36 °W | Updated 15 seconds ago

Overcast
Overcast
52.2 °F
Feels Like 52.2 °F
N
0.0
Wind Variable Wind from West
Gusts 1.0 mph

Today
High -- | Low -- °F
--% Chance of Precip.
Yesterday
High -- | Low -- °F
Precip. -- in
6:49 AM 6:36 PM
Waxing Crescent, 41% visible
Pressure 30.03 in
Visibility 10.0 miles
Clouds Overcast 2100 ft
Dew Point 46 °F
Humidity 81%
Rainfall 0.00 in
Snow Depth Not available.
UV 0.0 out of 12
Pollen 3.00 out of 12
Air Quality Not available.
Flu Activity Not available.
METAR KUES 302145Z 07007KT 10SM OVC021 11/06 A3003

More Conditions Fewer Conditions

Pressure 30.03 in
Visibility 10.0 miles
Clouds Overcast 2100 ft
Dew Point 46 °F
Humidity 81%
Rainfall 0.00 in
Snow Depth Not available.
UV 0.0 out of 12
Pollen 3.00 out of 12
Air Quality Not available.
Flu Activity Not available.
METAR KUES 302145Z 07007KT 10SM OVC021 11/06 A3003

More Conditions Fewer Conditions

10-Day Weather Forecast

Almanac

Astronomy

Sep. 30, 2014 Rise Set
Actual Time 6:49 AM CDT 6:36 PM CDT
Civil Twilight 6:21 AM CDT 7:04 PM CDT
Nautical Twilight 5:48 AM CDT 7:37 PM CDT
Astronomical Twilight 5:15 AM CDT 8:10 PM CDT
Moon 1:04 PM CDT 10:59 PM CDT
Length of Visible Light 12h 43m
Length of Day
11h 46m
Tomorrow will be 2m 53s shorter.
Waxing Crescent, 41% of the Moon is Illuminated
Today
Waxing Crescent
Oct 1
First Quarter
Oct 8
Full
Oct 15
Last Quarter
Oct 23
New

Today's Extremes

State Highs State Lows

Community

WunderPhotos

Upload Photos

1,757,767 photos uploaded!

Nearby

Snow Depth

Station Depth Elevation
No new snow has been reported.

Earthquake Activity

City Distance Mag. Time & Date
No recent earthquake activity has been reported nearby.
Minimum magnitude displayed is 2.5.

Coastal Water Temperatures

Place Temperature
No Stations Reporting

Nearby Weather Stations